Time;durP1;ratioP1;P1;durP2;ratioP2;P2;SDS_P1;SDS_P2;PMS_P1;PMS_P2;Temp;Humidity;BMP_temperature;BMP_pressure;BME280_temperature;BME280_humidity;BME280_pressure;Samples;Min_cycle;Max_cycle;Signal;HPM_P1;HPM_P2
2021/10/27 00:01:44;;;;;;;55.80;30.90;;;;;;;8.96;59.45;99838.14;235679;1198;138380;-58
2021/10/27 00:06:47;;;;;;;56.50;31.90;;;;;;;8.94;59.59;99842.67;235551;1198;138336;-57
2021/10/27 00:11:50;;;;;;;53.90;31.90;;;;;;;8.93;59.62;99844.98;235309;1196;138557;-58
2021/10/27 00:16:53;;;;;;;52.60;31.30;;;;;;;8.96;59.76;99849.85;235462;1196;138913;-56
2021/10/27 00:22:00;;;;;;;54.00;32.50;;;;;;;8.96;59.54;99843.81;235789;1196;138977;-58
2021/10/27 00:27:06;;;;;;;52.20;30.20;;;;;;;8.92;59.64;99844.88;235420;1196;140022;-58
2021/10/27 00:32:09;;;;;;;51.80;31.70;;;;;;;8.83;59.53;99848.25;235737;1196;138776;-56
2021/10/27 00:37:12;;;;;;;53.00;31.30;;;;;;;8.78;59.73;99851.13;235272;1196;139500;-56
2021/10/27 00:42:16;;;;;;;49.00;30.00;;;;;;;8.71;59.90;99854.73;235285;1198;140220;-57
2021/10/27 00:47:19;;;;;;;53.70;32.30;;;;;;;8.63;59.84;99864.83;235381;1196;139548;-56
2021/10/27 00:52:22;;;;;;;51.00;31.20;;;;;;;8.56;60.02;99866.02;235653;1196;138122;-56
2021/10/27 00:57:26;;;;;;;53.90;31.00;;;;;;;8.46;60.02;99861.96;235640;1196;138002;-56
2021/10/27 01:02:29;;;;;;;50.50;29.80;;;;;;;8.36;59.98;99859.34;235590;1196;138381;-56
2021/10/27 01:07:33;;;;;;;51.00;30.30;;;;;;;8.26;60.22;99856.02;235630;1196;138026;-57
2021/10/27 01:12:37;;;;;;;49.60;29.40;;;;;;;8.22;60.30;99852.29;235581;1196;138557;-57
2021/10/27 01:17:40;;;;;;;56.10;32.40;;;;;;;8.23;60.64;99854.89;235316;1196;138997;-57
2021/10/27 01:22:44;;;;;;;60.20;32.70;;;;;;;8.25;60.70;99853.06;235746;1196;138251;-56
2021/10/27 01:27:48;;;;;;;54.80;32.10;;;;;;;8.22;60.76;99850.88;234778;1197;137919;-57
2021/10/27 01:32:51;;;;;;;55.50;31.40;;;;;;;8.17;60.81;99850.70;235334;1196;138084;-57
2021/10/27 01:37:55;;;;;;;51.40;30.90;;;;;;;8.11;60.76;99853.95;235600;1197;141003;-57
2021/10/27 01:42:58;;;;;;;54.90;31.80;;;;;;;8.08;61.03;99863.28;235555;1197;138397;-57
2021/10/27 01:48:01;;;;;;;62.40;31.00;;;;;;;8.02;60.99;99864.04;235657;1196;139090;-58
2021/10/27 01:53:04;;;;;;;53.10;31.50;;;;;;;7.95;61.07;99861.48;235717;1196;138655;-58
2021/10/27 01:58:08;;;;;;;53.10;32.40;;;;;;;7.90;61.18;99866.41;235858;1196;138514;-56
2021/10/27 02:03:11;;;;;;;55.00;32.60;;;;;;;7.86;61.32;99871.52;235351;1196;138153;-58
2021/10/27 02:08:15;;;;;;;57.00;32.40;;;;;;;7.81;61.49;99869.39;235713;1196;139214;-58
2021/10/27 02:13:18;;;;;;;58.70;31.20;;;;;;;7.77;61.58;99861.98;235048;1196;139122;-56
2021/10/27 02:18:22;;;;;;;53.80;33.00;;;;;;;7.72;61.83;99866.39;235636;1196;139775;-58
2021/10/27 02:23:25;;;;;;;57.90;33.30;;;;;;;7.76;62.08;99872.41;235707;1196;138038;-56
2021/10/27 02:28:28;;;;;;;62.70;34.80;;;;;;;7.84;62.14;99877.96;235764;1196;138112;-57
2021/10/27 02:33:31;;;;;;;63.10;34.40;;;;;;;7.92;62.19;99880.30;235581;1196;138587;-56
2021/10/27 02:38:35;;;;;;;60.80;33.80;;;;;;;7.94;62.06;99892.27;235599;1196;139125;-58
2021/10/27 02:43:39;;;;;;;58.20;34.00;;;;;;;7.93;62.18;99890.35;235592;1194;139546;-57
2021/10/27 02:48:44;;;;;;;59.30;33.50;;;;;;;7.89;62.05;99886.29;235667;1196;138441;-56
2021/10/27 02:53:49;;;;;;;56.80;33.30;;;;;;;7.88;62.10;99891.40;234785;1196;137861;-57
2021/10/27 02:58:52;;;;;;;59.40;33.20;;;;;;;7.87;62.22;99885.80;235394;1196;138515;-55
2021/10/27 03:03:55;;;;;;;53.40;30.80;;;;;;;7.88;62.32;99889.84;235077;1196;139448;-56
2021/10/27 03:08:58;;;;;;;57.50;32.40;;;;;;;7.88;62.32;99892.83;235658;1196;138622;-57
2021/10/27 03:14:02;;;;;;;58.90;31.00;;;;;;;7.88;62.44;99894.95;235758;1196;139263;-57
2021/10/27 03:19:05;;;;;;;49.70;30.70;;;;;;;7.89;62.59;99896.49;235615;1196;138192;-57
2021/10/27 03:24:08;;;;;;;52.20;30.10;;;;;;;7.87;62.54;99903.45;234891;1198;139106;-57
2021/10/27 03:29:11;;;;;;;45.90;28.20;;;;;;;7.86;62.76;99908.98;235310;1198;139070;-56
2021/10/27 03:34:14;;;;;;;55.00;30.00;;;;;;;7.88;62.73;99910.15;235668;1197;139451;-56
2021/10/27 03:39:17;;;;;;;51.90;29.90;;;;;;;7.86;62.75;99913.92;235613;1197;139595;-57
2021/10/27 03:44:21;;;;;;;54.70;29.10;;;;;;;7.88;62.93;99918.98;235618;1196;138343;-57
2021/10/27 03:49:25;;;;;;;52.00;29.10;;;;;;;7.87;62.69;99918.64;235589;1197;138528;-57
2021/10/27 03:54:28;;;;;;;43.40;27.20;;;;;;;7.90;62.82;99927.02;235605;1196;139263;-58
2021/10/27 03:59:31;;;;;;;56.70;30.60;;;;;;;7.95;62.82;99928.61;235416;1197;138815;-58
2021/10/27 04:04:34;;;;;;;49.80;30.60;;;;;;;7.98;62.71;99931.16;235616;1196;138927;-60
2021/10/27 04:09:38;;;;;;;58.50;32.30;;;;;;;7.98;62.82;99930.79;235673;1196;138183;-59
2021/10/27 04:14:41;;;;;;;58.60;33.50;;;;;;;7.90;62.63;99928.63;235577;1196;138822;-59
2021/10/27 04:19:44;;;;;;;62.30;32.70;;;;;;;7.85;62.76;99930.77;235623;1196;140163;-57
2021/10/27 04:24:47;;;;;;;50.10;31.10;;;;;;;7.82;62.98;99933.16;235094;1190;138350;-58
2021/10/27 04:29:50;;;;;;;54.50;31.40;;;;;;;7.85;63.28;99930.73;235222;1197;137972;-56
2021/10/27 04:34:53;;;;;;;52.20;30.20;;;;;;;7.90;63.26;99934.10;235608;1197;137874;-56
2021/10/27 04:39:56;;;;;;;50.10;28.30;;;;;;;8.01;63.40;99938.64;235651;1197;139234;-57
2021/10/27 04:44:59;;;;;;;48.40;28.70;;;;;;;8.12;63.47;99936.61;235645;1196;139360;-55
2021/10/27 04:50:06;;;;;;;43.60;26.60;;;;;;;8.21;63.47;99942.30;235625;1197;138652;-58
2021/10/27 04:55:09;;;;;;;40.10;25.60;;;;;;;8.31;63.38;99943.67;235061;1196;138939;-56
2021/10/27 05:00:14;;;;;;;42.40;25.40;;;;;;;8.40;63.45;99954.69;235758;1196;139149;-55
2021/10/27 05:05:18;;;;;;;39.00;24.90;;;;;;;8.46;63.31;99954.09;235410;1197;141164;-56
2021/10/27 05:10:21;;;;;;;42.10;25.70;;;;;;;8.47;63.22;99953.21;235706;1196;138973;-57
2021/10/27 05:15:24;;;;;;;39.80;25.10;;;;;;;8.49;63.16;99956.48;235533;1196;139749;-56
2021/10/27 05:20:27;;;;;;;44.80;26.00;;;;;;;8.52;63.16;99965.17;234729;1196;139121;-57
2021/10/27 05:25:30;;;;;;;45.80;26.00;;;;;;;8.56;63.19;99971.05;235112;1196;138556;-56
2021/10/27 05:30:33;;;;;;;48.80;27.80;;;;;;;8.62;63.30;99976.83;235561;1196;138579;-57
2021/10/27 05:35:36;;;;;;;53.00;27.80;;;;;;;8.70;63.21;99983.39;235083;1190;139292;-57
2021/10/27 05:40:39;;;;;;;51.10;29.00;;;;;;;8.81;63.21;99990.07;235711;1196;140061;-54
2021/10/27 05:45:43;;;;;;;58.00;31.10;;;;;;;8.87;62.84;99995.69;235271;1197;138198;-57
2021/10/27 05:50:58;;;;;;;54.10;30.00;;;;;;;8.84;62.95;99995.63;235206;1198;139945;-56
2021/10/27 05:56:01;;;;;;;42.00;21.20;;;;;;;8.82;62.98;100004.02;234886;1196;141093;-59
2021/10/27 06:01:04;;;;;;;53.30;29.20;;;;;;;8.78;62.83;100002.02;235657;1196;139822;-58
2021/10/27 06:06:13;;;;;;;53.50;29.50;;;;;;;8.74;62.92;100004.14;235547;1197;138789;-57
2021/10/27 06:11:16;;;;;;;45.00;28.30;;;;;;;8.75;62.97;100007.44;235650;1196;139291;-59
2021/10/27 06:16:19;;;;;;;108.20;63.60;;;;;;;8.82;63.40;100004.36;235741;1196;138636;-58
2021/10/27 06:21:22;;;;;;;59.80;28.80;;;;;;;9.05;63.52;100010.89;235639;1196;160748;-59
2021/10/27 06:26:27;;;;;;;53.10;28.80;;;;;;;9.19;63.22;100012.62;235165;1196;138610;-59
2021/10/27 06:47:34;;;;;;;57.90;31.50;;;;;;;9.24;62.80;100023.04;235656;1197;139158;-56
2021/10/27 06:52:37;;;;;;;58.00;31.60;;;;;;;9.18;62.49;100026.64;235810;1196;140671;-57
2021/10/27 06:57:40;;;;;;;51.10;29.20;;;;;;;9.11;62.74;100030.48;235588;1196;138645;-58
2021/10/27 07:18:56;;;;;;;40.50;24.90;;;;;;;9.41;63.19;100024.96;235460;1197;139181;-57
2021/10/27 07:23:59;;;;;;;46.20;26.10;;;;;;;9.56;62.87;100024.72;235634;1196;138703;-57
2021/10/27 07:29:03;;;;;;;38.90;24.20;;;;;;;9.67;62.94;100025.30;235198;1196;139477;-58
2021/10/27 07:34:10;;;;;;;37.70;22.60;;;;;;;9.78;62.69;100023.98;235393;1196;139215;-59
2021/10/27 07:44:41;;;;;;;42.80;24.00;;;;;;;10.04;62.88;100031.54;235295;1196;140267;-59
2021/10/27 07:49:45;;;;;;;38.30;22.00;;;;;;;10.15;62.42;100032.27;235719;1197;138895;-60
2021/10/27 07:54:48;;;;;;;36.20;22.80;;;;;;;10.26;62.42;100026.31;234797;1197;138872;-59
2021/10/27 07:59:51;;;;;;;40.30;21.50;;;;;;;10.37;62.12;100023.34;235530;1196;138979;-58
2021/10/27 08:04:56;;;;;;;32.00;20.90;;;;;;;10.48;62.15;100025.89;235285;1197;139463;-60
2021/10/27 08:09:59;;;;;;;38.50;21.40;;;;;;;10.56;62.03;100026.56;235115;1196;139214;-59
2021/10/27 08:15:03;;;;;;;36.00;19.60;;;;;;;10.66;62.08;100023.62;235484;1197;139140;-60
2021/10/27 08:20:11;;;;;;;33.00;20.00;;;;;;;10.80;61.99;100014.95;235553;1196;139963;-60
2021/10/27 08:25:35;;;;;;;328.00;234.60;;;;;;;10.96;61.85;100018.11;234375;1196;139440;-58
2021/10/27 08:35:48;;;;;;;42.00;24.50;;;;;;;11.45;61.85;100024.25;234669;1196;139440;-61
2021/10/27 08:40:52;;;;;;;36.20;23.00;;;;;;;11.59;61.27;100026.73;235521;1196;138531;-57
2021/10/27 08:45:57;;;;;;;31.40;19.50;;;;;;;11.70;61.14;100021.22;235353;1196;140231;-60
2021/10/27 08:51:02;;;;;;;31.80;19.40;;;;;;;11.80;60.96;100020.52;235508;1196;138382;-61
2021/10/27 08:56:06;;;;;;;32.60;18.60;;;;;;;11.88;60.74;100018.70;235561;1196;139353;-59
2021/10/27 09:06:23;;;;;;;47.30;30.90;;;;;;;12.15;60.68;100018.53;235543;1196;139313;-61
2021/10/27 10:06:15;;;;;;;17.30;11.60;;;;;;;13.32;59.24;100000.94;235326;1198;138773;-59
2021/10/27 10:11:23;;;;;;;17.00;12.10;;;;;;;13.37;58.77;99997.02;235220;1198;138661;-59
2021/10/27 10:16:28;;;;;;;18.80;11.30;;;;;;;13.47;58.70;99999.83;235264;1198;138318;-58
2021/10/27 10:21:32;;;;;;;20.70;11.60;;;;;;;13.62;58.65;99995.59;235070;1198;139975;-58
2021/10/27 10:26:38;;;;;;;16.90;9.70;;;;;;;13.75;58.62;99996.59;235525;1198;139229;-58
2021/10/27 10:31:41;;;;;;;20.80;10.70;;;;;;;13.92;58.36;99992.18;235557;1198;138279;-61
2021/10/27 10:36:45;;;;;;;12.90;7.90;;;;;;;14.04;58.20;99989.86;235490;1198;139348;-59
2021/10/27 11:03:30;;;;;;;10.90;7.60;;;;;;;14.75;57.29;99970.63;235042;1198;138770;-59
2021/10/27 11:47:41;;;;;;;9.20;6.00;;;;;;;15.24;55.69;99924.84;235578;1196;139182;-59
2021/10/27 11:52:52;;;;;;;8.70;4.80;;;;;;;15.28;55.23;99925.45;235764;1196;138526;-59
2021/10/27 11:57:56;;;;;;;9.80;4.40;;;;;;;15.28;54.80;99916.16;235678;1196;138719;-61
2021/10/27 12:03:09;;;;;;;9.70;5.40;;;;;;;15.31;54.48;99913.30;235548;1196;138289;-60
2021/10/27 12:13:47;;;;;;;9.00;4.40;;;;;;;15.36;54.16;99912.02;235246;1198;138843;-59
2021/10/27 12:19:18;;;;;;;7.90;4.50;;;;;;;15.37;54.17;99908.89;235223;1198;138912;-58
2021/10/27 12:24:24;;;;;;;11.00;5.70;;;;;;;15.41;53.69;99906.33;235479;1197;138721;-60
2021/10/27 12:29:33;;;;;;;11.00;5.30;;;;;;;15.43;53.67;99903.70;235637;1196;138141;-59
2021/10/27 12:34:48;;;;;;;10.30;5.60;;;;;;;15.49;53.54;99900.63;235640;1198;138689;-61
2021/10/27 12:39:51;;;;;;;8.50;5.00;;;;;;;15.47;53.35;99900.73;235566;1196;138425;-59
2021/10/27 12:44:54;;;;;;;11.30;5.10;;;;;;;15.46;53.08;99895.98;235568;1196;138187;-60
2021/10/27 12:50:27;;;;;;;20.10;13.60;;;;;;;15.45;53.10;99897.30;235667;1196;139179;-59
2021/10/27 12:55:32;;;;;;;11.80;6.90;;;;;;;15.52;53.17;99896.64;235474;1196;138414;-58
2021/10/27 13:05:53;;;;;;;10.90;6.90;;;;;;;15.66;52.97;99893.34;235385;1196;138959;-59
2021/10/27 13:32:04;;;;;;;12.20;6.40;;;;;;;15.96;52.35;99895.62;234969;1198;138478;-60
2021/10/27 13:37:07;;;;;;;11.60;6.00;;;;;;;15.92;52.30;99897.65;235354;1198;138745;-59
2021/10/27 13:42:49;;;;;;;11.90;6.50;;;;;;;15.87;52.28;99897.15;235267;1198;139159;-58
2021/10/27 13:47:46;;;;;;;12.90;6.60;;;;;;;15.81;51.99;99894.48;235417;1196;138429;-59
2021/10/27 14:40:38;;;;;;;13.10;7.50;;;;;;;15.47;52.05;99886.48;235189;1198;138391;-58
2021/10/27 15:44:39;;;;;;;14.30;5.20;;;;;;;14.85;51.68;99895.25;235390;1198;138931;-60
2021/10/27 15:55:12;;;;;;;;;;;;;;;14.59;51.68;99898.95;235307;1197;139095;-58
2021/10/27 16:00:16;;;;;;;12.10;5.40;;;;;;;14.52;51.79;99903.70;235022;1198;124738;-58
2021/10/27 16:05:19;;;;;;;14.60;5.90;;;;;;;14.41;51.85;99903.41;235173;1198;138396;-59
2021/10/27 16:10:23;;;;;;;43.50;23.30;;;;;;;14.50;52.96;99902.73;234374;1198;140081;-58
2021/10/27 16:15:40;;;;;;;21.80;12.60;;;;;;;15.32;55.32;99904.60;235464;1196;138802;-59
2021/10/27 16:20:47;;;;;;;21.00;8.30;;;;;;;16.65;55.49;99906.20;234235;1196;138297;-61
2021/10/27 16:25:52;;;;;;;11.80;6.00;;;;;;;17.42;53.70;99908.36;235227;1196;138840;-60
2021/10/27 16:30:56;;;;;;;11.00;6.10;;;;;;;17.04;50.55;99913.36;235467;1196;138056;-58
2021/10/27 16:36:00;;;;;;;13.30;6.30;;;;;;;16.41;49.97;99913.34;235594;1196;138496;-61
2021/10/27 16:41:03;;;;;;;12.80;6.70;;;;;;;15.81;49.98;99915.03;235669;1191;137968;-60
2021/10/27 16:46:07;;;;;;;157.30;116.70;;;;;;;15.40;50.23;99916.61;235162;1198;138999;-57
2021/10/27 16:51:10;;;;;;;17.80;8.70;;;;;;;15.24;50.63;99921.10;235482;1196;138707;-59
2021/10/27 16:56:14;;;;;;;12.70;7.10;;;;;;;15.00;50.66;99923.93;235545;1196;138708;-59
2021/10/27 17:01:17;;;;;;;23.80;10.60;;;;;;;14.75;51.00;99926.27;235381;1196;138095;-59
2021/10/27 17:06:21;;;;;;;14.00;7.40;;;;;;;14.56;50.98;99924.14;235458;1196;139443;-58
2021/10/27 17:11:25;;;;;;;12.70;7.70;;;;;;;14.32;51.08;99928.84;235632;1196;138789;-59
2021/10/27 17:16:31;;;;;;;19.00;7.80;;;;;;;14.11;51.43;99941.23;234857;1196;138560;-59
2021/10/27 17:21:35;;;;;;;105.40;62.50;;;;;;;13.97;51.79;99949.60;235654;1196;141539;-60
2021/10/27 17:26:40;;;;;;;24.30;11.20;;;;;;;13.87;51.93;99943.55;235435;1196;139596;-60
2021/10/27 17:31:43;;;;;;;21.50;9.90;;;;;;;13.72;51.94;99939.70;235352;1196;139450;-59
2021/10/27 17:36:47;;;;;;;23.30;10.10;;;;;;;13.58;52.00;99937.52;235619;1196;139129;-61
2021/10/27 17:41:52;;;;;;;22.20;11.30;;;;;;;13.46;52.44;99947.65;235684;1196;138768;-61
2021/10/27 17:47:05;;;;;;;22.90;11.60;;;;;;;13.37;52.70;99947.11;235271;1196;138778;-60
2021/10/27 17:52:16;;;;;;;20.50;11.80;;;;;;;13.26;52.83;99949.19;235248;1198;138814;-58
2021/10/27 17:57:57;;;;;;;24.60;12.10;;;;;;;13.13;53.01;99944.02;235004;1198;139205;-58
2021/10/27 18:02:58;;;;;;;23.70;13.50;;;;;;;13.02;53.14;99941.64;235322;1196;139463;-60
2021/10/27 18:08:05;;;;;;;25.60;13.80;;;;;;;12.91;53.52;99937.64;234651;1196;138737;-63
2021/10/27 18:13:31;;;;;;;30.10;13.80;;;;;;;12.79;53.78;99932.42;235450;1198;139502;-58
2021/10/27 18:18:47;;;;;;;29.10;13.90;;;;;;;12.69;53.87;99933.77;235480;1196;138511;-59
2021/10/27 18:40:01;;;;;;;28.10;15.50;;;;;;;12.41;54.45;99950.27;235096;1197;139404;-61
2021/10/27 18:45:07;;;;;;;29.00;17.20;;;;;;;12.35;55.08;99950.23;235484;1197;139246;-61
2021/10/27 18:50:12;;;;;;;31.30;16.90;;;;;;;12.29;55.20;99954.48;235524;1196;138589;-60
2021/10/27 19:00:44;;;;;;;33.60;19.90;;;;;;;12.18;55.53;99958.09;235279;1196;138854;-61
2021/10/27 19:11:16;;;;;;;34.30;21.70;;;;;;;12.09;55.95;99964.10;235609;1197;139179;-59
2021/10/27 19:16:19;;;;;;;35.30;20.40;;;;;;;12.06;55.96;99968.16;235030;1196;139142;-58
2021/10/27 19:21:23;;;;;;;39.10;21.70;;;;;;;12.01;55.88;99971.96;235375;1196;138556;-60
2021/10/27 19:26:34;;;;;;;35.70;21.70;;;;;;;11.95;56.20;99974.08;235492;1197;139214;-59
2021/10/27 20:09:06;;;;;;;41.10;22.70;;;;;;;11.37;56.90;99997.45;235099;1197;139494;-60
2021/10/27 20:56:43;;;;;;;64.40;35.40;;;;;;;10.72;58.94;100011.96;234890;1198;140365;-60
2021/10/27 21:17:32;;;;;;;63.20;37.00;;;;;;;10.75;59.86;100008.62;235628;1196;139124;-57
2021/10/27 21:22:38;;;;;;;116.00;65.00;;;;;;;10.81;59.98;100009.61;235557;1196;138844;-59
2021/10/27 21:27:50;;;;;;;68.50;39.10;;;;;;;10.89;59.85;100012.77;235528;1197;140672;-59
2021/10/27 21:43:27;;;;;;;66.40;36.90;;;;;;;10.89;60.06;100014.89;235644;1196;139024;-58
2021/10/27 21:48:30;;;;;;;64.20;37.40;;;;;;;10.87;59.75;100015.35;235021;1198;139337;-57
2021/10/27 21:53:33;;;;;;;63.90;36.30;;;;;;;10.90;60.32;100012.34;235514;1196;139468;-59
2021/10/27 21:58:37;;;;;;;57.80;33.30;;;;;;;10.90;59.91;100002.25;235082;1197;139092;-60
2021/10/27 22:03:40;;;;;;;59.80;33.50;;;;;;;10.80;59.81;100001.65;235373;1196;138730;-59
2021/10/27 22:08:43;;;;;;;58.50;33.90;;;;;;;10.62;59.44;100003.89;235552;1197;139129;-58
2021/10/27 22:13:46;;;;;;;65.50;34.60;;;;;;;10.41;59.62;100002.57;235593;1196;138838;-59
2021/10/27 22:18:49;;;;;;;67.10;35.80;;;;;;;10.25;59.62;100006.66;235608;1196;138705;-58
2021/10/27 22:23:53;;;;;;;65.60;35.50;;;;;;;10.13;59.81;100008.23;235818;1196;138550;-63
2021/10/27 22:28:56;;;;;;;62.10;35.60;;;;;;;10.05;60.58;100013.38;235147;1197;139727;-57
2021/10/27 22:34:01;;;;;;;68.40;37.50;;;;;;;9.97;60.97;100004.02;235343;1197;139239;-60
2021/10/27 22:39:04;;;;;;;68.90;36.80;;;;;;;10.03;61.26;99987.43;234951;1196;140052;-58
2021/10/27 22:44:10;;;;;;;62.30;35.20;;;;;;;10.12;61.50;99983.30;235533;1197;139204;-56
2021/10/27 22:49:14;;;;;;;;;;;;;;;10.12;61.37;99988.06;235572;1196;139426;-57
2021/10/27 22:54:18;;;;;;;65.70;36.00;;;;;;;10.09;61.18;99989.29;235512;1196;124782;-60
2021/10/27 22:59:36;;;;;;;62.40;36.50;;;;;;;10.06;61.23;99984.29;235671;1196;139034;-58
2021/10/27 23:10:06;;;;;;;63.10;36.10;;;;;;;10.11;61.72;99980.52;235506;1196;138898;-57
2021/10/27 23:42:13;;;;;;;76.00;42.60;;;;;;;9.67;61.62;99966.30;235812;1196;139495;-59
2021/10/27 23:47:16;;;;;;;79.50;46.30;;;;;;;9.59;61.90;99969.88;235457;1196;140650;-58
2021/10/27 23:52:24;;;;;;;77.30;45.20;;;;;;;9.50;62.10;99978.73;235580;1196;138788;-60
2021/10/27 23:57:49;;;;;;;80.30;46.10;;;;;;;9.49;62.32;99986.77;235807;1196;138819;-56
